METAR Data
IDs: Format: Raw Decoded Include TAF

Data at: 2313 UTC 02 Oct 2022

METAR for:KAGC (Pittsburgh/Allegheny, PA, US)
Text:KAGC 022253Z 00000KT 10SM CLR 15/11 A3018 RMK AO2 SLP225 T01500106
Temperature: 15.0°C ( 59°F)
Dewpoint: 10.6°C ( 51°F) [RH = 75%]
Pressure (altimeter):30.18 inches Hg (1022.1 mb) [Sea level pressure: 1022.5 mb]
Winds:calm
Visibility:10 or more sm (16+ km)
Ceiling:at least 12,000 feet AGL
Clouds:sky clear below 12,000 feet AGL